createdAt,value
2018-06-19T00:02:40.177Z,84.67
2018-06-19T00:05:45.546Z,84.24
2018-06-19T00:08:50.075Z,84.97
2018-06-19T00:11:54.420Z,85.75
2018-06-19T00:14:58.773Z,85.64
2018-06-19T00:18:14.433Z,85.73
2018-06-19T00:21:26.879Z,85.46
2018-06-19T00:24:31.325Z,85.21
2018-06-19T00:27:35.948Z,85.01
2018-06-19T00:30:40.393Z,85.13
2018-06-19T00:33:44.683Z,85.37
2018-06-19T00:36:48.996Z,85.20
2018-06-19T00:39:53.330Z,85.45
2018-06-19T00:42:57.594Z,85.84
2018-06-19T00:46:02.270Z,86.48
2018-06-19T00:49:07.116Z,86.23
2018-06-19T00:52:11.493Z,86.38
2018-06-19T00:55:15.951Z,86.70
2018-06-19T00:58:20.302Z,87.73
2018-06-19T01:01:24.626Z,87.08
2018-06-19T01:04:28.987Z,86.88
2018-06-19T01:07:33.275Z,86.76
2018-06-19T01:10:37.593Z,89.33
2018-06-19T01:13:41.885Z,89.64
2018-06-19T01:16:46.246Z,88.30
2018-06-19T01:19:50.773Z,89.29
2018-06-19T01:22:55.614Z,90.37
2018-06-19T01:28:57.806Z,90.32
2018-06-19T01:32:02.119Z,89.76
2018-06-19T01:35:07.001Z,89.52
2018-06-19T01:38:11.557Z,89.80
2018-06-19T01:41:15.819Z,90.25
2018-06-19T01:44:20.119Z,89.95
2018-06-19T01:47:24.575Z,90.04
2018-06-19T01:50:28.894Z,89.01
2018-06-19T01:53:33.707Z,88.94
2018-06-19T01:56:38.089Z,89.52
2018-06-19T01:59:42.578Z,89.23
2018-06-19T02:02:46.882Z,88.98
2018-06-19T02:05:51.186Z,88.54
2018-06-19T02:08:55.457Z,89.42
2018-06-19T02:11:59.752Z,89.09
2018-06-19T02:15:04.067Z,89.04
2018-06-19T02:18:08.369Z,89.13
2018-06-19T02:21:12.711Z,89.27
2018-06-19T02:24:17.060Z,88.88
2018-06-19T02:27:21.369Z,89.35
2018-06-19T02:30:25.685Z,89.28
2018-06-19T02:33:30.413Z,89.23
2018-06-19T02:36:34.737Z,89.90
2018-06-19T02:39:39.018Z,89.97
2018-06-19T02:42:43.405Z,90.07
2018-06-19T02:45:47.706Z,90.13
2018-06-19T02:48:52.187Z,90.74
2018-06-19T02:51:56.506Z,90.46
2018-06-19T02:55:00.901Z,90.13
2018-06-19T02:58:05.304Z,90.30
2018-06-19T03:01:09.616Z,89.54
2018-06-19T03:04:14.054Z,89.77
2018-06-19T03:07:18.342Z,89.40
2018-06-19T03:10:22.621Z,88.54
2018-06-19T03:13:27.282Z,87.90
2018-06-19T03:16:32.111Z,87.83
2018-06-19T03:19:36.403Z,88.04
2018-06-19T03:22:40.811Z,89.29
2018-06-19T03:25:45.733Z,89.63
2018-06-19T03:28:50.104Z,89.78
2018-06-19T03:31:54.522Z,90.35
2018-06-19T03:34:58.945Z,89.81
2018-06-19T03:38:03.358Z,90.12
2018-06-19T03:41:07.685Z,89.46
2018-06-19T03:44:12.313Z,89.69
2018-06-19T03:47:16.667Z,88.78
2018-06-19T03:50:21.058Z,88.19
2018-06-19T03:53:25.649Z,87.04
2018-06-19T03:56:29.991Z,87.17
2018-06-19T03:59:34.520Z,87.36
2018-06-19T04:02:39.554Z,87.04
2018-06-19T04:05:43.854Z,87.12
2018-06-19T04:08:48.255Z,86.23
2018-06-19T04:11:52.890Z,86.28
2018-06-19T04:14:57.615Z,85.69
2018-06-19T04:18:02.040Z,85.40
2018-06-19T04:21:07.417Z,85.50
2018-06-19T04:24:11.772Z,85.33
2018-06-19T04:27:16.070Z,84.41
2018-06-19T04:30:20.387Z,84.76
2018-06-19T04:33:24.696Z,84.94
2018-06-19T04:36:29.163Z,84.29
2018-06-19T04:39:33.517Z,84.31
2018-06-19T04:42:37.845Z,83.55
2018-06-19T04:45:42.266Z,82.19
2018-06-19T04:48:47.094Z,81.60
2018-06-19T04:51:51.457Z,81.41
2018-06-19T04:55:05.991Z,80.85
2018-06-19T04:58:12.274Z,82.08
2018-06-19T05:01:16.618Z,80.88
2018-06-19T05:04:20.980Z,80.24
2018-06-19T05:07:25.311Z,78.60
2018-06-19T05:10:29.432Z,79.90
2018-06-19T05:13:34.661Z,81.25
2018-06-19T05:16:40.371Z,81.29
2018-06-19T05:19:44.778Z,84.97
2018-06-19T05:22:50.174Z,84.62
2018-06-19T05:25:54.847Z,81.86
2018-06-19T05:28:59.653Z,80.72
2018-06-19T05:32:04.101Z,79.46
2018-06-19T05:35:10.626Z,79.36
2018-06-19T05:38:15.199Z,77.11
2018-06-19T05:41:19.810Z,77.40
2018-06-19T05:44:24.371Z,76.83
2018-06-19T05:47:29.124Z,77.69
2018-06-19T05:50:33.575Z,76.74
2018-06-19T05:53:38.037Z,77.81
2018-06-19T05:56:42.462Z,77.50
2018-06-19T05:59:47.699Z,76.41
2018-06-19T06:02:53.291Z,74.79
2018-06-19T06:05:57.884Z,70.98
2018-06-19T06:09:02.239Z,65.37
2018-06-19T06:12:06.945Z,63.30
2018-06-19T06:15:11.673Z,58.55
2018-06-19T06:18:16.782Z,57.96
2018-06-19T06:21:21.364Z,57.51
2018-06-19T06:24:25.775Z,55.03
2018-06-19T06:32:54.155Z,61.12
2018-06-19T06:35:59.805Z,63.33
2018-06-19T06:39:05.202Z,59.98
2018-06-19T06:42:09.514Z,63.94
2018-06-19T06:45:14.255Z,65.35
2018-06-19T06:48:19.400Z,62.35
2018-06-19T06:51:23.797Z,60.52
2018-06-19T06:54:28.847Z,58.25
2018-06-19T06:57:33.397Z,56.68
2018-06-19T07:00:37.715Z,58.83
2018-06-19T07:03:42.503Z,53.95
2018-06-19T07:06:46.775Z,53.65
2018-06-19T07:09:51.120Z,53.85
2018-06-19T07:12:55.405Z,52.68
2018-06-19T07:15:59.949Z,53.63
2018-06-19T07:19:04.403Z,55.80
2018-06-19T07:22:08.775Z,49.89
2018-06-19T07:25:13.375Z,50.64
2018-06-19T07:28:17.757Z,53.86
2018-06-19T07:31:22.073Z,55.89
2018-06-19T07:34:26.562Z,55.81
2018-06-19T07:37:30.837Z,55.61
2018-06-19T07:40:35.137Z,52.82
2018-06-19T07:43:39.425Z,53.53
2018-06-19T07:46:43.873Z,54.25
2018-06-19T07:49:48.223Z,52.83
2018-06-19T07:52:52.674Z,53.64
2018-06-19T07:55:57.074Z,56.37
2018-06-19T07:59:01.402Z,59.54
2018-06-19T08:02:05.929Z,57.06
2018-06-19T08:05:10.394Z,57.30
2018-06-19T08:08:14.719Z,56.12
2018-06-19T08:11:19.051Z,55.05
2018-06-19T08:14:23.729Z,51.82
2018-06-19T08:17:28.289Z,53.58
2018-06-19T08:20:32.695Z,54.75
2018-06-19T08:23:37.143Z,52.55
2018-06-19T08:26:41.589Z,55.46
2018-06-19T08:29:46.109Z,55.52
2018-06-19T08:32:50.453Z,56.66
2018-06-19T08:35:54.837Z,53.99
2018-06-19T08:38:59.193Z,51.08
2018-06-19T08:42:03.732Z,52.79
2018-06-19T08:45:08.097Z,51.03
2018-06-19T08:48:12.422Z,51.63
2018-06-19T08:51:17.102Z,49.36
2018-06-19T08:54:21.624Z,48.71
2018-06-19T08:57:28.914Z,47.41
2018-06-19T09:00:33.375Z,49.80
2018-06-19T09:03:37.777Z,47.80
2018-06-19T09:06:42.419Z,51.30
2018-06-19T09:09:48.217Z,49.05
2018-06-19T09:12:52.561Z,48.17
2018-06-19T09:15:57.149Z,52.62
2018-06-19T09:19:01.812Z,53.25
2018-06-19T09:22:06.242Z,53.01
2018-06-19T09:25:10.632Z,52.33
2018-06-19T09:28:14.966Z,52.87
2018-06-19T09:31:19.300Z,51.27
2018-06-19T09:34:23.986Z,51.26
2018-06-19T09:37:28.435Z,48.35
2018-06-19T09:40:32.920Z,51.63
2018-06-19T09:43:37.248Z,49.02
2018-06-19T09:46:42.087Z,52.56
2018-06-19T09:49:47.467Z,49.95
2018-06-19T09:52:51.958Z,50.60
2018-06-19T09:55:56.899Z,50.99
2018-06-19T09:59:01.325Z,52.18
2018-06-19T10:02:05.975Z,51.75
2018-06-19T10:05:10.366Z,50.40
2018-06-19T10:08:14.768Z,48.60
2018-06-19T10:11:19.278Z,52.29
2018-06-19T10:14:23.688Z,50.43
2018-06-19T10:17:29.027Z,49.15
2018-06-19T10:20:33.379Z,47.77
2018-06-19T10:23:37.919Z,47.73
2018-06-19T10:26:42.458Z,46.35
2018-06-19T10:29:47.841Z,48.25
2018-06-19T10:32:52.298Z,52.30
2018-06-19T10:35:56.808Z,54.65
2018-06-19T10:39:01.193Z,51.19
2018-06-19T10:42:05.514Z,49.95
2018-06-19T10:45:09.906Z,50.36
2018-06-19T10:48:14.329Z,51.01
2018-06-19T10:51:18.902Z,49.07
2018-06-19T10:54:23.378Z,46.78
2018-06-19T10:57:27.718Z,52.99
2018-06-19T11:00:32.013Z,46.18
2018-06-19T11:03:36.576Z,46.98
2018-06-19T11:06:40.919Z,47.05
2018-06-19T11:09:45.475Z,46.78
2018-06-19T11:12:49.892Z,42.84
2018-06-19T11:15:54.259Z,46.82
2018-06-19T11:18:58.795Z,51.16
2018-06-19T11:22:03.654Z,50.58
2018-06-19T11:25:07.992Z,50.58
2018-06-19T11:28:12.449Z,49.11
2018-06-19T11:31:17.782Z,48.13
2018-06-19T11:34:22.162Z,47.04
2018-06-19T11:37:26.563Z,48.62
2018-06-19T11:40:30.866Z,45.55
2018-06-19T11:43:35.689Z,46.20
2018-06-19T11:46:40.734Z,47.87
2018-06-19T11:49:45.079Z,48.93
2018-06-19T11:52:49.490Z,46.80
2018-06-19T11:55:57.164Z,46.87
2018-06-19T11:59:04.761Z,47.76
2018-06-19T12:02:09.166Z,46.35
2018-06-19T12:05:13.910Z,48.60
2018-06-19T12:08:19.077Z,47.10
2018-06-19T12:11:23.464Z,48.63
2018-06-19T12:14:27.849Z,50.00
2018-06-19T12:17:32.272Z,51.18
2018-06-19T12:20:36.673Z,50.88
2018-06-19T12:23:41.232Z,48.76
2018-06-19T12:26:45.564Z,49.78
2018-06-19T12:29:50.179Z,48.79
2018-06-19T12:32:54.632Z,48.94
2018-06-19T12:35:59.026Z,48.95
2018-06-19T12:39:03.552Z,48.59
2018-06-19T12:42:08.054Z,46.95
2018-06-19T12:45:12.461Z,48.94
2018-06-19T12:48:17.665Z,48.74
2018-06-19T12:52:04.557Z,45.41
2018-06-19T12:55:40.911Z,47.12
2018-06-19T12:58:46.390Z,45.08
2018-06-19T13:01:50.820Z,47.38
2018-06-19T13:05:12.784Z,51.08
2018-06-19T13:08:18.237Z,48.38
2018-06-19T13:15:07.898Z,46.58
2018-06-19T13:18:31.652Z,49.43
2018-06-19T13:21:36.082Z,46.78
2018-06-19T13:24:40.760Z,49.03
2018-06-19T13:27:45.474Z,48.84
2018-06-19T13:31:08.193Z,47.73
2018-06-19T13:34:12.643Z,48.36
2018-06-19T13:37:17.392Z,49.25
2018-06-19T13:42:34.840Z,47.87
2018-06-19T13:45:39.360Z,50.74
2018-06-19T13:48:43.847Z,49.71
2018-06-19T13:51:48.421Z,49.26
2018-06-19T13:54:53.034Z,49.62
2018-06-19T13:58:19.606Z,47.74
2018-06-19T14:01:24.736Z,46.77
2018-06-19T14:04:29.179Z,48.99
2018-06-19T14:08:05.031Z,50.92
2018-06-19T14:11:26.284Z,50.20
2018-06-19T14:14:30.918Z,46.29
2018-06-19T14:17:35.550Z,45.98
2018-06-19T14:20:40.744Z,45.06
2018-06-19T14:23:45.066Z,45.55
2018-06-19T14:26:49.582Z,42.67
2018-06-19T14:29:54.536Z,44.89
2018-06-19T14:33:00.366Z,48.24
2018-06-19T14:36:04.703Z,47.74
2018-06-19T14:39:09.346Z,47.20
2018-06-19T14:42:13.639Z,47.69
2018-06-19T14:45:17.911Z,48.07
2018-06-19T14:48:22.296Z,48.16
2018-06-19T14:51:26.817Z,46.70
2018-06-19T14:54:31.189Z,47.30
2018-06-19T14:57:35.909Z,49.47
2018-06-19T15:00:40.536Z,48.80
2018-06-19T15:03:44.822Z,49.01
2018-06-19T15:06:49.190Z,48.40
2018-06-19T15:09:53.563Z,45.40
2018-06-19T15:12:57.794Z,45.96
2018-06-19T15:16:02.694Z,44.88
2018-06-19T15:19:07.182Z,44.52
2018-06-19T15:22:11.509Z,44.59
2018-06-19T15:25:16.171Z,45.79
2018-06-19T15:28:20.666Z,46.63
2018-06-19T15:31:25.145Z,43.34
2018-06-19T15:35:00.831Z,43.65
2018-06-19T15:38:05.925Z,42.49
2018-06-19T15:41:10.675Z,44.34
2018-06-19T15:44:15.133Z,46.50
2018-06-19T15:47:19.630Z,47.25
2018-06-19T15:50:24.111Z,47.74
2018-06-19T15:53:28.592Z,47.48
2018-06-19T15:57:35.805Z,50.90
2018-06-19T16:00:39.995Z,47.73
2018-06-19T16:03:45.115Z,48.68
2018-06-19T16:06:49.551Z,51.51
2018-06-19T16:09:54.057Z,50.13
2018-06-19T16:12:58.447Z,52.21
2018-06-19T16:16:02.892Z,49.57
2018-06-19T16:19:07.458Z,50.72
2018-06-19T16:22:11.764Z,51.94
2018-06-19T16:25:16.154Z,50.97
2018-06-19T16:28:20.553Z,50.40
2018-06-19T16:31:26.362Z,50.59
2018-06-19T16:34:30.766Z,52.10
2018-06-19T16:37:35.406Z,53.74
2018-06-19T16:40:39.943Z,54.28
2018-06-19T16:43:44.598Z,51.04
2018-06-19T16:46:49.050Z,48.01
2018-06-19T16:49:53.498Z,47.18
2018-06-19T16:52:58.117Z,44.52
2018-06-19T16:56:02.546Z,43.43
2018-06-19T16:59:06.981Z,44.69
2018-06-19T17:02:11.757Z,47.18
2018-06-19T17:05:16.185Z,48.63
2018-06-19T17:08:20.570Z,49.30
2018-06-19T17:11:25.019Z,50.37
2018-06-19T17:14:29.466Z,52.22
2018-06-19T17:17:34.063Z,52.32
2018-06-19T17:20:38.736Z,52.68
2018-06-19T17:23:43.250Z,53.46
2018-06-19T17:26:47.721Z,53.12
2018-06-19T17:29:52.131Z,53.95
2018-06-19T17:32:56.481Z,54.69
2018-06-19T17:36:01.026Z,55.15
2018-06-19T17:39:09.832Z,55.05
2018-06-19T17:42:15.998Z,54.94
2018-06-19T17:45:21.274Z,55.13
2018-06-19T17:48:25.989Z,55.00
2018-06-19T17:51:30.630Z,55.63
2018-06-19T17:54:35.426Z,55.64
2018-06-19T17:57:40.060Z,56.07
2018-06-19T18:00:44.749Z,56.14
2018-06-19T18:03:50.724Z,55.11
2018-06-19T18:06:55.302Z,54.38
2018-06-19T18:09:59.720Z,54.18
2018-06-19T18:13:04.373Z,54.67
2018-06-19T18:16:08.922Z,53.78
2018-06-19T18:19:13.371Z,54.14
2018-06-19T18:22:19.256Z,54.23
2018-06-19T18:25:24.297Z,55.18
2018-06-19T18:28:28.947Z,54.28
2018-06-19T18:31:33.858Z,54.08
2018-06-19T18:34:38.317Z,55.01
2018-06-19T18:37:42.817Z,55.60
2018-06-19T18:40:47.599Z,55.45
2018-06-19T18:43:52.166Z,55.61
2018-06-19T18:46:56.855Z,56.75
2018-06-19T18:50:01.296Z,56.79
2018-06-19T18:53:06.238Z,56.66
2018-06-19T18:56:10.901Z,58.15
2018-06-19T18:59:15.372Z,58.66
2018-06-19T19:02:19.785Z,58.63
2018-06-19T19:05:24.131Z,59.25
2018-06-19T19:08:28.538Z,60.06
2018-06-19T19:11:33.163Z,58.81
2018-06-19T19:14:42.935Z,59.85
2018-06-19T19:17:53.214Z,60.83
2018-06-19T19:20:58.527Z,61.68
2018-06-19T19:24:02.761Z,62.14
2018-06-19T19:27:12.617Z,63.35
2018-06-19T19:30:17.372Z,64.29
2018-06-19T19:33:21.761Z,64.49
2018-06-19T19:36:31.696Z,64.12
2018-06-19T19:39:36.260Z,64.87
2018-06-19T19:42:42.545Z,65.06
2018-06-19T19:45:48.361Z,66.12
2018-06-19T19:48:57.256Z,65.77
2018-06-19T19:52:01.818Z,66.74
2018-06-19T19:55:06.193Z,67.82
2018-06-19T19:58:15.780Z,68.13
2018-06-19T20:01:20.421Z,68.35
2018-06-19T20:04:24.793Z,69.86
2018-06-19T20:07:29.202Z,70.24
2018-06-19T20:10:33.647Z,70.90
2018-06-19T20:13:38.240Z,71.35
2018-06-19T20:16:42.803Z,71.29
2018-06-19T20:19:47.294Z,72.16
2018-06-19T20:22:51.718Z,72.45
2018-06-19T20:25:56.037Z,73.14
2018-06-19T20:29:01.790Z,73.36
2018-06-19T20:32:06.275Z,73.23
2018-06-19T20:35:10.704Z,74.25
2018-06-19T20:38:15.154Z,74.10
2018-06-19T20:41:19.604Z,73.93
2018-06-19T20:44:25.033Z,74.28
2018-06-19T20:47:29.707Z,74.83
2018-06-19T20:50:34.035Z,75.74
2018-06-19T20:53:38.515Z,75.42
2018-06-19T20:56:43.486Z,75.23
2018-06-19T20:59:48.082Z,75.33
2018-06-19T21:02:52.832Z,76.15
2018-06-19T21:05:57.161Z,76.35
2018-06-19T21:09:01.684Z,76.10
2018-06-19T21:12:06.093Z,76.09
2018-06-19T21:15:10.978Z,76.11
2018-06-19T21:18:15.402Z,76.60
2018-06-19T21:21:20.352Z,76.94
2018-06-19T21:24:24.292Z,76.96
2018-06-19T21:27:28.770Z,77.93
2018-06-19T21:30:34.394Z,77.95
2018-06-19T21:33:38.855Z,78.10
2018-06-19T21:36:44.328Z,78.59
2018-06-19T21:39:48.758Z,78.77
2018-06-19T21:42:54.201Z,79.11
2018-06-19T21:45:58.533Z,78.80
2018-06-19T21:49:02.846Z,79.66
2018-06-19T21:52:08.524Z,79.25
2018-06-19T21:55:12.828Z,79.55
2018-06-19T21:58:17.193Z,79.83
2018-06-19T22:01:21.725Z,79.61
2018-06-19T22:04:26.196Z,80.06
2018-06-19T22:07:30.922Z,80.33
2018-06-19T22:10:35.968Z,80.17
2018-06-19T22:13:40.401Z,80.70
2018-06-19T22:16:45.638Z,80.83
2018-06-19T22:19:50.173Z,80.99
2018-06-19T22:22:54.514Z,80.29
2018-06-19T22:25:58.830Z,80.41
2018-06-19T22:29:03.151Z,80.05
2018-06-19T22:32:07.567Z,80.02
2018-06-19T22:35:11.846Z,80.80
2018-06-19T22:38:16.806Z,80.45
2018-06-19T22:41:22.429Z,80.94
2018-06-19T22:44:26.785Z,80.88
2018-06-19T22:47:31.067Z,81.56
2018-06-19T22:50:35.850Z,81.67
2018-06-19T22:53:40.265Z,81.92
2018-06-19T22:56:44.782Z,81.26
2018-06-19T22:59:49.341Z,81.06
2018-06-19T23:03:02.062Z,81.48
2018-06-19T23:06:06.565Z,81.47
2018-06-19T23:09:11.370Z,82.14
2018-06-19T23:12:15.760Z,82.00
2018-06-19T23:15:20.122Z,82.44
2018-06-19T23:18:25.729Z,81.64
2018-06-19T23:21:30.035Z,81.77
2018-06-19T23:24:34.516Z,82.01
2018-06-19T23:27:38.824Z,82.84
2018-06-19T23:30:43.441Z,81.52
2018-06-19T23:33:47.796Z,82.50
2018-06-19T23:36:52.102Z,81.73
2018-06-19T23:39:56.540Z,81.93
2018-06-19T23:43:01.533Z,82.00
2018-06-19T23:46:05.841Z,82.66
2018-06-19T23:49:10.173Z,82.61
2018-06-19T23:52:14.881Z,82.73
2018-06-19T23:55:19.234Z,82.77
2018-06-19T23:58:23.639Z,82.43
